sensor_id;sensor_type;location;lat;lon;timestamp;pressure;altitude;pressure_sealevel;temperature;humidity
68594;BME280;55563;52.416;13.548;2022-12-18T00:00:24;102886.47;;;-6.26;100.00
68594;BME280;55563;52.416;13.548;2022-12-18T00:02:27;102889.22;;;-6.43;100.00
68594;BME280;55563;52.416;13.548;2022-12-18T00:04:27;102894.78;;;-6.65;100.00
68594;BME280;55563;52.416;13.548;2022-12-18T00:06:29;102893.88;;;-6.35;100.00
68594;BME280;55563;52.416;13.548;2022-12-18T00:08:29;102898.41;;;-6.12;100.00
68594;BME280;55563;52.416;13.548;2022-12-18T00:10:30;102906.91;;;-6.11;100.00
68594;BME280;55563;52.416;13.548;2022-12-18T00:12:31;102908.09;;;-6.17;100.00
68594;BME280;55563;52.416;13.548;2022-12-18T00:14:32;102894.59;;;-6.19;100.00
68594;BME280;55563;52.416;13.548;2022-12-18T00:16:33;102896.16;;;-6.45;100.00
68594;BME280;55563;52.416;13.548;2022-12-18T00:18:36;102899.97;;;-6.38;100.00
68594;BME280;55563;52.416;13.548;2022-12-18T00:20:38;102905.19;;;-6.25;100.00
68594;BME280;55563;52.416;13.548;2022-12-18T00:22:39;102904.28;;;-6.10;100.00
68594;BME280;55563;52.416;13.548;2022-12-18T00:24:40;102900.63;;;-6.20;100.00
68594;BME280;55563;52.416;13.548;2022-12-18T00:26:40;102903.28;;;-6.36;100.00
68594;BME280;55563;52.416;13.548;2022-12-18T00:28:42;102898.50;;;-6.28;100.00
68594;BME280;55563;52.416;13.548;2022-12-18T00:30:43;102893.84;;;-6.21;100.00
68594;BME280;55563;52.416;13.548;2022-12-18T00:32:43;102885.63;;;-6.12;100.00
68594;BME280;55563;52.416;13.548;2022-12-18T00:34:44;102887.22;;;-6.24;100.00
68594;BME280;55563;52.416;13.548;2022-12-18T00:36:47;102888.81;;;-6.23;100.00
68594;BME280;55563;52.416;13.548;2022-12-18T00:38:48;102890.53;;;-6.09;100.00
68594;BME280;55563;52.416;13.548;2022-12-18T00:40:51;102889.75;;;-6.24;100.00
68594;BME280;55563;52.416;13.548;2022-12-18T00:42:52;102888.09;;;-6.10;100.00
68594;BME280;55563;52.416;13.548;2022-12-18T00:44:56;102900.06;;;-6.11;100.00
68594;BME280;55563;52.416;13.548;2022-12-18T00:46:56;102899.59;;;-6.18;100.00
68594;BME280;55563;52.416;13.548;2022-12-18T00:48:57;102892.78;;;-6.31;100.00
68594;BME280;55563;52.416;13.548;2022-12-18T00:50:58;102889.13;;;-6.55;100.00
68594;BME280;55563;52.416;13.548;2022-12-18T00:52:59;102888.78;;;-6.49;100.00
68594;BME280;55563;52.416;13.548;2022-12-18T00:54:59;102883.38;;;-6.31;100.00
68594;BME280;55563;52.416;13.548;2022-12-18T00:57:00;102877.38;;;-6.58;100.00
68594;BME280;55563;52.416;13.548;2022-12-18T00:59:00;102876.53;;;-6.44;100.00
68594;BME280;55563;52.416;13.548;2022-12-18T01:01:02;102868.31;;;-6.64;100.00
68594;BME280;55563;52.416;13.548;2022-12-18T01:03:04;102864.66;;;-6.59;100.00
68594;BME280;55563;52.416;13.548;2022-12-18T01:05:05;102869.69;;;-6.58;100.00
68594;BME280;55563;52.416;13.548;2022-12-18T01:07:06;102874.16;;;-6.47;100.00
68594;BME280;55563;52.416;13.548;2022-12-18T01:09:08;102884.38;;;-6.76;100.00
68594;BME280;55563;52.416;13.548;2022-12-18T01:11:13;102882.38;;;-6.71;100.00
68594;BME280;55563;52.416;13.548;2022-12-18T01:13:15;102876.69;;;-6.62;100.00
68594;BME280;55563;52.416;13.548;2022-12-18T01:15:16;102882.00;;;-6.50;100.00
68594;BME280;55563;52.416;13.548;2022-12-18T01:17:17;102882.19;;;-6.68;100.00
68594;BME280;55563;52.416;13.548;2022-12-18T01:19:17;102889.06;;;-6.54;100.00
68594;BME280;55563;52.416;13.548;2022-12-18T01:21:21;102890.97;;;-6.43;100.00
68594;BME280;55563;52.416;13.548;2022-12-18T01:23:22;102888.75;;;-6.35;100.00
68594;BME280;55563;52.416;13.548;2022-12-18T01:25:23;102895.41;;;-6.47;100.00
68594;BME280;55563;52.416;13.548;2022-12-18T01:27:24;102895.25;;;-6.58;100.00
68594;BME280;55563;52.416;13.548;2022-12-18T01:29:25;102907.22;;;-6.44;100.00
68594;BME280;55563;52.416;13.548;2022-12-18T01:31:29;102914.34;;;-6.49;100.00
68594;BME280;55563;52.416;13.548;2022-12-18T01:33:29;102908.41;;;-6.64;100.00
68594;BME280;55563;52.416;13.548;2022-12-18T01:35:31;102910.22;;;-6.66;100.00
68594;BME280;55563;52.416;13.548;2022-12-18T01:37:32;102908.69;;;-6.69;100.00
68594;BME280;55563;52.416;13.548;2022-12-18T01:39:33;102909.31;;;-6.65;100.00
68594;BME280;55563;52.416;13.548;2022-12-18T01:41:34;102908.28;;;-7.05;100.00
68594;BME280;55563;52.416;13.548;2022-12-18T01:43:57;102911.31;;;-6.84;100.00
68594;BME280;55563;52.416;13.548;2022-12-18T01:45:59;102916.88;;;-6.92;100.00
68594;BME280;55563;52.416;13.548;2022-12-18T01:48:05;102909.13;;;-6.76;100.00
68594;BME280;55563;52.416;13.548;2022-12-18T01:50:19;102910.59;;;-6.86;100.00
68594;BME280;55563;52.416;13.548;2022-12-18T01:52:21;102913.84;;;-6.84;100.00
68594;BME280;55563;52.416;13.548;2022-12-18T01:54:22;102910.66;;;-6.88;100.00
68594;BME280;55563;52.416;13.548;2022-12-18T01:56:24;102909.22;;;-6.78;100.00
68594;BME280;55563;52.416;13.548;2022-12-18T02:00:49;102914.47;;;-6.95;100.00
68594;BME280;55563;52.416;13.548;2022-12-18T02:02:50;102908.13;;;-6.74;100.00
68594;BME280;55563;52.416;13.548;2022-12-18T02:04:52;102913.31;;;-6.75;100.00
68594;BME280;55563;52.416;13.548;2022-12-18T02:07:03;102913.69;;;-6.81;100.00
68594;BME280;55563;52.416;13.548;2022-12-18T02:09:14;102916.41;;;-6.84;100.00
68594;BME280;55563;52.416;13.548;2022-12-18T02:11:32;102924.72;;;-6.81;100.00
68594;BME280;55563;52.416;13.548;2022-12-18T02:13:50;102930.00;;;-6.98;100.00
68594;BME280;55563;52.416;13.548;2022-12-18T02:16:08;102924.72;;;-6.81;100.00
68594;BME280;55563;52.416;13.548;2022-12-18T02:18:19;102923.91;;;-6.95;100.00
68594;BME280;55563;52.416;13.548;2022-12-18T02:20:33;102927.13;;;-7.08;100.00
68594;BME280;55563;52.416;13.548;2022-12-18T02:23:12;102930.84;;;-6.83;100.00
68594;BME280;55563;52.416;13.548;2022-12-18T02:27:49;102937.25;;;-6.76;100.00
68594;BME280;55563;52.416;13.548;2022-12-18T02:29:53;102926.69;;;-7.00;100.00
68594;BME280;55563;52.416;13.548;2022-12-18T02:31:57;102930.66;;;-7.24;100.00
68594;BME280;55563;52.416;13.548;2022-12-18T02:34:02;102928.66;;;-7.19;100.00
68594;BME280;55563;52.416;13.548;2022-12-18T02:36:11;102934.13;;;-6.95;100.00
68594;BME280;55563;52.416;13.548;2022-12-18T02:38:14;102934.94;;;-6.81;100.00
68594;BME280;55563;52.416;13.548;2022-12-18T02:40:20;102941.00;;;-6.68;100.00
68594;BME280;55563;52.416;13.548;2022-12-18T02:42:22;102945.91;;;-6.79;100.00
68594;BME280;55563;52.416;13.548;2022-12-18T02:44:24;102943.34;;;-6.79;100.00
68594;BME280;55563;52.416;13.548;2022-12-18T02:46:44;102947.53;;;-6.92;100.00
68594;BME280;55563;52.416;13.548;2022-12-18T02:48:49;102950.78;;;-7.04;100.00
68594;BME280;55563;52.416;13.548;2022-12-18T02:51:15;102954.38;;;-6.92;100.00
68594;BME280;55563;52.416;13.548;2022-12-18T02:53:33;102954.63;;;-6.97;100.00
68594;BME280;55563;52.416;13.548;2022-12-18T02:58:09;102960.09;;;-7.03;100.00
68594;BME280;55563;52.416;13.548;2022-12-18T03:00:26;102950.88;;;-7.06;100.00
68594;BME280;55563;52.416;13.548;2022-12-18T03:02:37;102949.34;;;-6.94;100.00
68594;BME280;55563;52.416;13.548;2022-12-18T03:04:43;102944.34;;;-6.95;100.00
68594;BME280;55563;52.416;13.548;2022-12-18T03:06:54;102955.28;;;-6.93;100.00
68594;BME280;55563;52.416;13.548;2022-12-18T03:09:00;102948.72;;;-6.97;100.00
68594;BME280;55563;52.416;13.548;2022-12-18T03:11:06;102948.97;;;-7.02;100.00
68594;BME280;55563;52.416;13.548;2022-12-18T03:13:12;102950.34;;;-6.96;100.00
68594;BME280;55563;52.416;13.548;2022-12-18T03:15:19;102956.84;;;-6.91;100.00
68594;BME280;55563;52.416;13.548;2022-12-18T03:17:27;102952.25;;;-7.00;100.00
68594;BME280;55563;52.416;13.548;2022-12-18T03:19:31;102946.91;;;-6.95;100.00
68594;BME280;55563;52.416;13.548;2022-12-18T03:21:37;102948.78;;;-6.99;100.00
68594;BME280;55563;52.416;13.548;2022-12-18T03:23:43;102955.22;;;-6.92;100.00
68594;BME280;55563;52.416;13.548;2022-12-18T03:25:49;102959.72;;;-6.81;100.00
68594;BME280;55563;52.416;13.548;2022-12-18T03:27:55;102960.50;;;-6.81;100.00
68594;BME280;55563;52.416;13.548;2022-12-18T03:30:03;102962.06;;;-6.78;100.00
68594;BME280;55563;52.416;13.548;2022-12-18T03:32:12;102954.31;;;-6.77;100.00
68594;BME280;55563;52.416;13.548;2022-12-18T03:34:21;102962.59;;;-6.87;100.00
68594;BME280;55563;52.416;13.548;2022-12-18T03:36:24;102949.97;;;-6.90;100.00
68594;BME280;55563;52.416;13.548;2022-12-18T03:38:25;102954.41;;;-6.78;100.00
68594;BME280;55563;52.416;13.548;2022-12-18T03:40:36;102949.63;;;-6.84;100.00
68594;BME280;55563;52.416;13.548;2022-12-18T03:42:47;102953.25;;;-7.02;100.00
68594;BME280;55563;52.416;13.548;2022-12-18T03:45:06;102965.59;;;-6.95;100.00
68594;BME280;55563;52.416;13.548;2022-12-18T03:47:31;102959.06;;;-7.15;100.00
68594;BME280;55563;52.416;13.548;2022-12-18T03:52:04;102962.69;;;-7.19;100.00
68594;BME280;55563;52.416;13.548;2022-12-18T03:54:08;102958.88;;;-7.12;100.00
68594;BME280;55563;52.416;13.548;2022-12-18T03:56:16;102958.59;;;-7.21;100.00
68594;BME280;55563;52.416;13.548;2022-12-18T03:58:22;102960.63;;;-7.12;100.00
68594;BME280;55563;52.416;13.548;2022-12-18T04:00:35;102960.78;;;-7.15;100.00
68594;BME280;55563;52.416;13.548;2022-12-18T04:02:45;102960.44;;;-7.09;100.00
68594;BME280;55563;52.416;13.548;2022-12-18T04:04:58;102968.31;;;-7.28;100.00
68594;BME280;55563;52.416;13.548;2022-12-18T04:07:01;102964.34;;;-7.18;100.00
68594;BME280;55563;52.416;13.548;2022-12-18T04:09:03;102965.41;;;-7.22;100.00
68594;BME280;55563;52.416;13.548;2022-12-18T04:11:07;102960.06;;;-7.33;100.00
68594;BME280;55563;52.416;13.548;2022-12-18T04:13:09;102954.19;;;-7.19;100.00
68594;BME280;55563;52.416;13.548;2022-12-18T04:15:11;102952.03;;;-7.11;100.00
68594;BME280;55563;52.416;13.548;2022-12-18T04:17:12;102943.44;;;-7.24;100.00
68594;BME280;55563;52.416;13.548;2022-12-18T04:19:13;102957.41;;;-7.16;100.00
68594;BME280;55563;52.416;13.548;2022-12-18T04:21:16;102957.69;;;-7.20;100.00
68594;BME280;55563;52.416;13.548;2022-12-18T04:23:18;102964.06;;;-7.13;100.00
68594;BME280;55563;52.416;13.548;2022-12-18T04:25:19;102961.47;;;-7.27;100.00
68594;BME280;55563;52.416;13.548;2022-12-18T04:27:31;102973.41;;;-7.28;100.00
68594;BME280;55563;52.416;13.548;2022-12-18T04:29:33;102969.19;;;-7.29;100.00
68594;BME280;55563;52.416;13.548;2022-12-18T04:31:35;102983.16;;;-7.34;100.00
68594;BME280;55563;52.416;13.548;2022-12-18T04:33:36;102977.03;;;-7.32;100.00
68594;BME280;55563;52.416;13.548;2022-12-18T04:35:39;102973.16;;;-7.23;100.00
68594;BME280;55563;52.416;13.548;2022-12-18T04:37:40;102982.59;;;-7.39;100.00
68594;BME280;55563;52.416;13.548;2022-12-18T04:39:40;102975.41;;;-7.33;100.00
68594;BME280;55563;52.416;13.548;2022-12-18T04:41:48;102981.91;;;-7.27;100.00
68594;BME280;55563;52.416;13.548;2022-12-18T04:43:49;102990.22;;;-7.24;100.00
68594;BME280;55563;52.416;13.548;2022-12-18T04:45:49;102987.56;;;-7.07;100.00
68594;BME280;55563;52.416;13.548;2022-12-18T04:47:50;102993.91;;;-7.14;100.00
68594;BME280;55563;52.416;13.548;2022-12-18T04:49:51;102981.88;;;-7.12;100.00
68594;BME280;55563;52.416;13.548;2022-12-18T04:51:51;102988.66;;;-7.26;100.00
68594;BME280;55563;52.416;13.548;2022-12-18T04:53:53;102989.75;;;-7.30;100.00
68594;BME280;55563;52.416;13.548;2022-12-18T04:56:06;102992.13;;;-7.43;100.00
68594;BME280;55563;52.416;13.548;2022-12-18T04:58:07;102991.72;;;-7.51;100.00
68594;BME280;55563;52.416;13.548;2022-12-18T05:00:08;102986.38;;;-7.31;100.00
68594;BME280;55563;52.416;13.548;2022-12-18T05:02:09;102990.97;;;-7.22;100.00
68594;BME280;55563;52.416;13.548;2022-12-18T05:04:10;102989.00;;;-7.32;100.00
68594;BME280;55563;52.416;13.548;2022-12-18T05:06:10;102997.91;;;-7.39;100.00
68594;BME280;55563;52.416;13.548;2022-12-18T05:08:11;103003.09;;;-7.25;100.00
68594;BME280;55563;52.416;13.548;2022-12-18T05:10:12;103000.84;;;-7.16;100.00
68594;BME280;55563;52.416;13.548;2022-12-18T05:12:13;103004.38;;;-7.18;100.00
68594;BME280;55563;52.416;13.548;2022-12-18T05:14:13;103000.59;;;-7.11;100.00
68594;BME280;55563;52.416;13.548;2022-12-18T05:16:14;102991.28;;;-7.12;100.00
68594;BME280;55563;52.416;13.548;2022-12-18T05:18:15;102998.06;;;-7.27;100.00
68594;BME280;55563;52.416;13.548;2022-12-18T05:20:15;103001.69;;;-7.15;100.00
68594;BME280;55563;52.416;13.548;2022-12-18T05:22:16;103000.78;;;-7.30;100.00
68594;BME280;55563;52.416;13.548;2022-12-18T05:24:17;102995.09;;;-7.35;100.00
68594;BME280;55563;52.416;13.548;2022-12-18T05:26:18;103007.69;;;-7.16;100.00
68594;BME280;55563;52.416;13.548;2022-12-18T05:28:20;103007.59;;;-7.15;100.00
68594;BME280;55563;52.416;13.548;2022-12-18T05:30:21;103001.25;;;-7.08;100.00
68594;BME280;55563;52.416;13.548;2022-12-18T05:32:22;103014.19;;;-7.11;100.00
68594;BME280;55563;52.416;13.548;2022-12-18T05:34:23;103009.09;;;-7.11;100.00
68594;BME280;55563;52.416;13.548;2022-12-18T05:36:24;103017.66;;;-7.12;100.00
68594;BME280;55563;52.416;13.548;2022-12-18T05:38:26;103025.31;;;-7.12;100.00
68594;BME280;55563;52.416;13.548;2022-12-18T05:40:27;103025.63;;;-7.02;100.00
68594;BME280;55563;52.416;13.548;2022-12-18T05:42:27;103028.19;;;-7.02;100.00
68594;BME280;55563;52.416;13.548;2022-12-18T05:44:28;103023.38;;;-6.92;100.00
68594;BME280;55563;52.416;13.548;2022-12-18T05:46:29;103027.59;;;-6.91;100.00
68594;BME280;55563;52.416;13.548;2022-12-18T05:48:29;103030.72;;;-6.86;100.00
68594;BME280;55563;52.416;13.548;2022-12-18T05:50:30;103036.09;;;-6.91;100.00
68594;BME280;55563;52.416;13.548;2022-12-18T05:52:35;103029.97;;;-6.88;100.00
68594;BME280;55563;52.416;13.548;2022-12-18T05:54:36;103034.19;;;-6.87;100.00
68594;BME280;55563;52.416;13.548;2022-12-18T05:56:37;103035.84;;;-6.86;100.00
68594;BME280;55563;52.416;13.548;2022-12-18T05:58:38;103043.25;;;-6.97;100.00
68594;BME280;55563;52.416;13.548;2022-12-18T06:00:42;103036.41;;;-6.97;100.00
68594;BME280;55563;52.416;13.548;2022-12-18T06:02:46;103037.13;;;-6.95;100.00
68594;BME280;55563;52.416;13.548;2022-12-18T06:04:47;103043.59;;;-7.03;100.00
68594;BME280;55563;52.416;13.548;2022-12-18T06:06:48;103041.03;;;-7.03;100.00
68594;BME280;55563;52.416;13.548;2022-12-18T06:08:51;103047.66;;;-7.15;100.00
68594;BME280;55563;52.416;13.548;2022-12-18T06:10:52;103049.91;;;-7.25;100.00
68594;BME280;55563;52.416;13.548;2022-12-18T06:12:53;103056.06;;;-7.29;100.00
68594;BME280;55563;52.416;13.548;2022-12-18T06:14:54;103041.03;;;-7.19;100.00
68594;BME280;55563;52.416;13.548;2022-12-18T06:16:54;103052.91;;;-7.18;100.00
68594;BME280;55563;52.416;13.548;2022-12-18T06:18:57;103054.13;;;-7.10;100.00
68594;BME280;55563;52.416;13.548;2022-12-18T06:20:58;103060.34;;;-7.14;100.00
68594;BME280;55563;52.416;13.548;2022-12-18T06:23:00;103056.69;;;-7.10;100.00
68594;BME280;55563;52.416;13.548;2022-12-18T06:25:01;103067.59;;;-7.06;100.00
68594;BME280;55563;52.416;13.548;2022-12-18T06:27:01;103070.41;;;-7.11;100.00
68594;BME280;55563;52.416;13.548;2022-12-18T06:29:02;103066.28;;;-7.13;100.00
68594;BME280;55563;52.416;13.548;2022-12-18T06:31:04;103074.44;;;-7.07;100.00
68594;BME280;55563;52.416;13.548;2022-12-18T06:33:05;103071.56;;;-7.00;100.00
68594;BME280;55563;52.416;13.548;2022-12-18T06:35:07;103078.22;;;-6.98;100.00
68594;BME280;55563;52.416;13.548;2022-12-18T06:37:08;103072.72;;;-7.06;100.00
68594;BME280;55563;52.416;13.548;2022-12-18T06:39:09;103066.78;;;-7.07;100.00
68594;BME280;55563;52.416;13.548;2022-12-18T06:41:12;103073.59;;;-7.23;100.00
68594;BME280;55563;52.416;13.548;2022-12-18T06:43:13;103077.56;;;-7.17;100.00
68594;BME280;55563;52.416;13.548;2022-12-18T06:45:14;103086.78;;;-6.99;100.00
68594;BME280;55563;52.416;13.548;2022-12-18T06:47:15;103081.28;;;-7.07;100.00
68594;BME280;55563;52.416;13.548;2022-12-18T06:49:16;103082.94;;;-7.06;100.00
68594;BME280;55563;52.416;13.548;2022-12-18T06:51:19;103086.13;;;-7.02;100.00
68594;BME280;55563;52.416;13.548;2022-12-18T06:53:20;103083.56;;;-7.02;100.00
68594;BME280;55563;52.416;13.548;2022-12-18T06:55:21;103094.19;;;-6.94;100.00
68594;BME280;55563;52.416;13.548;2022-12-18T06:57:22;103091.75;;;-6.96;100.00
68594;BME280;55563;52.416;13.548;2022-12-18T06:59:23;103092.00;;;-7.00;100.00
68594;BME280;55563;52.416;13.548;2022-12-18T07:01:23;103096.94;;;-6.97;100.00
68594;BME280;55563;52.416;13.548;2022-12-18T07:03:24;103104.59;;;-6.97;100.00
68594;BME280;55563;52.416;13.548;2022-12-18T07:05:25;103107.47;;;-7.03;100.00
68594;BME280;55563;52.416;13.548;2022-12-18T07:07:26;103122.16;;;-7.07;100.00
68594;BME280;55563;52.416;13.548;2022-12-18T07:09:26;103118.13;;;-7.11;100.00
68594;BME280;55563;52.416;13.548;2022-12-18T07:11:27;103116.97;;;-7.06;100.00
68594;BME280;55563;52.416;13.548;2022-12-18T07:13:28;103107.06;;;-6.96;100.00
68594;BME280;55563;52.416;13.548;2022-12-18T07:15:28;103110.47;;;-6.95;100.00
68594;BME280;55563;52.416;13.548;2022-12-18T07:17:29;103102.88;;;-6.97;100.00
68594;BME280;55563;52.416;13.548;2022-12-18T07:19:30;103098.16;;;-7.05;100.00
68594;BME280;55563;52.416;13.548;2022-12-18T07:21:34;103103.69;;;-6.96;100.00
68594;BME280;55563;52.416;13.548;2022-12-18T07:23:35;103103.59;;;-6.95;100.00
68594;BME280;55563;52.416;13.548;2022-12-18T07:25:36;103111.19;;;-6.93;100.00
68594;BME280;55563;52.416;13.548;2022-12-18T07:27:37;103110.84;;;-6.87;100.00
68594;BME280;55563;52.416;13.548;2022-12-18T07:29:38;103106.25;;;-6.96;100.00
68594;BME280;55563;52.416;13.548;2022-12-18T07:31:39;103117.38;;;-6.97;100.00
68594;BME280;55563;52.416;13.548;2022-12-18T07:33:39;103116.63;;;-6.99;100.00
68594;BME280;55563;52.416;13.548;2022-12-18T07:35:40;103119.69;;;-7.09;100.00
68594;BME280;55563;52.416;13.548;2022-12-18T07:37:41;103112.75;;;-7.07;100.00
68594;BME280;55563;52.416;13.548;2022-12-18T07:39:42;103109.13;;;-7.02;100.00
68594;BME280;55563;52.416;13.548;2022-12-18T07:41:43;103100.00;;;-6.91;100.00
68594;BME280;55563;52.416;13.548;2022-12-18T07:44:04;103110.22;;;-7.07;100.00
68594;BME280;55563;52.416;13.548;2022-12-18T07:46:05;103105.50;;;-6.98;100.00
68594;BME280;55563;52.416;13.548;2022-12-18T07:48:06;103100.13;;;-6.94;100.00
68594;BME280;55563;52.416;13.548;2022-12-18T07:50:07;103103.50;;;-6.93;100.00
68594;BME280;55563;52.416;13.548;2022-12-18T07:52:08;103105.94;;;-7.06;100.00
68594;BME280;55563;52.416;13.548;2022-12-18T07:54:09;103109.53;;;-6.94;100.00
68594;BME280;55563;52.416;13.548;2022-12-18T07:56:11;103115.41;;;-6.92;100.00
68594;BME280;55563;52.416;13.548;2022-12-18T07:58:12;103112.66;;;-6.89;100.00
68594;BME280;55563;52.416;13.548;2022-12-18T08:00:13;103106.47;;;-6.85;100.00
68594;BME280;55563;52.416;13.548;2022-12-18T08:02:14;103109.28;;;-6.90;100.00
68594;BME280;55563;52.416;13.548;2022-12-18T08:04:15;103101.03;;;-6.95;100.00
68594;BME280;55563;52.416;13.548;2022-12-18T08:06:16;103110.59;;;-6.98;100.00
68594;BME280;55563;52.416;13.548;2022-12-18T08:08:16;103116.03;;;-6.89;100.00
68594;BME280;55563;52.416;13.548;2022-12-18T08:10:17;103117.06;;;-6.91;100.00
68594;BME280;55563;52.416;13.548;2022-12-18T08:12:18;103115.47;;;-6.78;100.00
68594;BME280;55563;52.416;13.548;2022-12-18T08:14:19;103117.75;;;-6.74;100.00
68594;BME280;55563;52.416;13.548;2022-12-18T08:16:20;103112.34;;;-6.83;100.00
68594;BME280;55563;52.416;13.548;2022-12-18T08:18:22;103114.38;;;-6.74;100.00
68594;BME280;55563;52.416;13.548;2022-12-18T08:20:23;103120.88;;;-6.69;100.00
68594;BME280;55563;52.416;13.548;2022-12-18T08:22:23;103110.34;;;-6.63;100.00
68594;BME280;55563;52.416;13.548;2022-12-18T08:24:24;103112.88;;;-6.63;100.00
68594;BME280;55563;52.416;13.548;2022-12-18T08:26:28;103118.25;;;-6.67;100.00
68594;BME280;55563;52.416;13.548;2022-12-18T08:28:29;103122.28;;;-6.63;100.00
68594;BME280;55563;52.416;13.548;2022-12-18T08:30:30;103114.50;;;-6.62;100.00
68594;BME280;55563;52.416;13.548;2022-12-18T08:32:30;103122.94;;;-6.59;100.00
68594;BME280;55563;52.416;13.548;2022-12-18T08:34:33;103127.44;;;-6.49;100.00
68594;BME280;55563;52.416;13.548;2022-12-18T08:36:34;103123.81;;;-6.45;100.00
68594;BME280;55563;52.416;13.548;2022-12-18T08:38:35;103112.31;;;-6.38;100.00
68594;BME280;55563;52.416;13.548;2022-12-18T08:40:36;103118.91;;;-6.34;100.00
68594;BME280;55563;52.416;13.548;2022-12-18T08:42:37;103118.72;;;-6.31;100.00
68594;BME280;55563;52.416;13.548;2022-12-18T08:44:57;103118.91;;;-6.34;100.00
68594;BME280;55563;52.416;13.548;2022-12-18T08:46:58;103125.81;;;-6.20;100.00
68594;BME280;55563;52.416;13.548;2022-12-18T08:48:59;103138.50;;;-6.19;100.00
68594;BME280;55563;52.416;13.548;2022-12-18T08:51:00;103140.00;;;-6.14;100.00
68594;BME280;55563;52.416;13.548;2022-12-18T08:53:00;103142.44;;;-6.13;100.00
68594;BME280;55563;52.416;13.548;2022-12-18T08:55:01;103136.91;;;-6.05;100.00
68594;BME280;55563;52.416;13.548;2022-12-18T08:57:02;103140.56;;;-6.09;100.00
68594;BME280;55563;52.416;13.548;2022-12-18T08:59:03;103141.00;;;-6.03;100.00
68594;BME280;55563;52.416;13.548;2022-12-18T09:01:07;103137.06;;;-6.08;100.00
68594;BME280;55563;52.416;13.548;2022-12-18T09:03:14;103147.50;;;-5.97;100.00
68594;BME280;55563;52.416;13.548;2022-12-18T09:05:15;103148.06;;;-5.92;100.00
68594;BME280;55563;52.416;13.548;2022-12-18T09:07:15;103147.78;;;-5.88;100.00
68594;BME280;55563;52.416;13.548;2022-12-18T09:09:16;103161.63;;;-5.90;100.00
68594;BME280;55563;52.416;13.548;2022-12-18T09:11:23;103162.13;;;-5.99;100.00
68594;BME280;55563;52.416;13.548;2022-12-18T09:13:25;103167.38;;;-5.87;100.00
68594;BME280;55563;52.416;13.548;2022-12-18T09:15:25;103161.69;;;-5.92;100.00
68594;BME280;55563;52.416;13.548;2022-12-18T09:17:26;103167.53;;;-5.90;100.00
68594;BME280;55563;52.416;13.548;2022-12-18T09:19:27;103168.06;;;-5.85;100.00
68594;BME280;55563;52.416;13.548;2022-12-18T09:21:31;103166.88;;;-5.79;100.00
68594;BME280;55563;52.416;13.548;2022-12-18T09:23:32;103157.66;;;-5.67;100.00
68594;BME280;55563;52.416;13.548;2022-12-18T09:25:33;103166.91;;;-5.65;100.00
68594;BME280;55563;52.416;13.548;2022-12-18T09:27:36;103166.47;;;-5.57;100.00
68594;BME280;55563;52.416;13.548;2022-12-18T09:29:36;103171.03;;;-5.62;100.00
68594;BME280;55563;52.416;13.548;2022-12-18T09:31:38;103177.81;;;-5.61;100.00
68594;BME280;55563;52.416;13.548;2022-12-18T09:33:38;103176.03;;;-5.61;100.00
68594;BME280;55563;52.416;13.548;2022-12-18T09:35:41;103179.00;;;-5.53;100.00
68594;BME280;55563;52.416;13.548;2022-12-18T09:37:42;103178.63;;;-5.47;100.00
68594;BME280;55563;52.416;13.548;2022-12-18T09:39:43;103178.53;;;-5.45;100.00
68594;BME280;55563;52.416;13.548;2022-12-18T09:41:52;103181.84;;;-5.43;100.00
68594;BME280;55563;52.416;13.548;2022-12-18T09:43:57;103171.03;;;-5.34;100.00
68594;BME280;55563;52.416;13.548;2022-12-18T09:46:04;103168.28;;;-5.31;100.00
68594;BME280;55563;52.416;13.548;2022-12-18T09:48:14;103154.34;;;-5.27;100.00
68594;BME280;55563;52.416;13.548;2022-12-18T09:54:48;103148.22;;;-5.24;100.00
68594;BME280;55563;52.416;13.548;2022-12-18T09:56:50;103142.75;;;-5.18;100.00
68594;BME280;55563;52.416;13.548;2022-12-18T09:58:59;103143.72;;;-5.07;100.00
68594;BME280;55563;52.416;13.548;2022-12-18T10:01:01;103146.19;;;-5.05;100.00
68594;BME280;55563;52.416;13.548;2022-12-18T10:03:09;103138.38;;;-4.90;100.00
68594;BME280;55563;52.416;13.548;2022-12-18T10:05:13;103135.94;;;-5.05;100.00
68594;BME280;55563;52.416;13.548;2022-12-18T10:07:31;103123.41;;;-5.10;100.00
68594;BME280;55563;52.416;13.548;2022-12-18T10:09:46;103114.06;;;-5.11;100.00
68594;BME280;55563;52.416;13.548;2022-12-18T10:19:35;103108.75;;;-5.22;100.00
68594;BME280;55563;52.416;13.548;2022-12-18T10:26:27;103119.19;;;-5.11;100.00
68594;BME280;55563;52.416;13.548;2022-12-18T10:28:30;103110.25;;;-5.18;100.00
68594;BME280;55563;52.416;13.548;2022-12-18T10:30:31;103112.16;;;-5.21;100.00
68594;BME280;55563;52.416;13.548;2022-12-18T10:32:32;103119.19;;;-5.11;100.00
68594;BME280;55563;52.416;13.548;2022-12-18T10:34:33;103112.78;;;-5.04;100.00
68594;BME280;55563;52.416;13.548;2022-12-18T10:36:34;103115.72;;;-5.10;100.00
68594;BME280;55563;52.416;13.548;2022-12-18T10:38:35;103109.56;;;-5.07;100.00
68594;BME280;55563;52.416;13.548;2022-12-18T10:43:05;103096.06;;;-4.97;100.00
68594;BME280;55563;52.416;13.548;2022-12-18T10:45:14;103095.88;;;-4.94;100.00
68594;BME280;55563;52.416;13.548;2022-12-18T10:47:17;103086.88;;;-4.87;100.00
68594;BME280;55563;52.416;13.548;2022-12-18T10:49:22;103093.75;;;-4.87;100.00
68594;BME280;55563;52.416;13.548;2022-12-18T10:51:27;103085.75;;;-4.82;100.00
68594;BME280;55563;52.416;13.548;2022-12-18T10:53:30;103084.75;;;-4.80;100.00
68594;BME280;55563;52.416;13.548;2022-12-18T10:55:35;103087.31;;;-4.80;100.00
68594;BME280;55563;52.416;13.548;2022-12-18T10:57:39;103086.06;;;-4.87;100.00